EJU37FN LIMC-EHAM
Flight info
| Callsign | EJU37FN |
|---|---|
| Flight time | 1h 17m |
| Altitude | 38000 |
| Route | AOSTA DCT ORSUD DCT MOLUS DCT GILIR DCT PENDU DCT IXILU DCT GIVOR DCT SORAL DCT IBERA DCT RITAX M624 BUB Y28 HELEN |
| Aircraft | A320/M-SDE3FGHIRWY/LB1 |
Departure
| Time | 2026-04-30 17:49 |
|---|---|
| Airport | Milan Malpensa International Airport (LIMC) |
Arrival
| Time | 2026-04-30 19:07 |
|---|---|
| Airport | Amsterdam Airport Schiphol (EHAM) |
| Time | Latitude | Longitude | Altitude | Speed | Heading |
|---|---|---|---|---|---|
| 2026-04-30 17:39 | 45.64489 | 8.72203 | 748 ft | 4 kts | 30° |
| 2026-04-30 17:41 | 45.64435 | 8.72185 | 748 ft | 1 kts | 290° |
| 2026-04-30 17:42 | 45.64422 | 8.72179 | 749 ft | 2 kts | 168° |
| 2026-04-30 17:42 | 45.64442 | 8.72389 | 750 ft | 2 kts | 80° |
| 2026-04-30 17:43 | 45.64379 | 8.72435 | 750 ft | 13 kts | 171° |
| 2026-04-30 17:44 | 45.63978 | 8.72556 | 749 ft | 22 kts | 166° |
| 2026-04-30 17:44 | 45.63537 | 8.72681 | 752 ft | 22 kts | 168° |
| 2026-04-30 17:46 | 45.62688 | 8.72913 | 749 ft | 27 kts | 169° |
| 2026-04-30 17:47 | 45.61913 | 8.73127 | 753 ft | 28 kts | 169° |
| 2026-04-30 17:48 | 45.61629 | 8.73723 | 745 ft | 12 kts | 14° |
| 2026-04-30 17:48 | 45.63211 | 8.73296 | 745 ft | 163 kts | 349° |
| 2026-04-30 17:49 | 45.68258 | 8.72624 | 2740 ft | 214 kts | 0° |
| 2026-04-30 17:50 | 45.73708 | 8.69456 | 5791 ft | 241 kts | 275° |
| 2026-04-30 17:51 | 45.72358 | 8.62454 | 8273 ft | 251 kts | 250° |
| 2026-04-30 17:52 | 45.69446 | 8.55575 | 10070 ft | 295 kts | 237° |
| 2026-04-30 17:53 | 45.63241 | 8.41597 | 12974 ft | 355 kts | 238° |
| 2026-04-30 17:54 | 45.58875 | 8.29010 | 15714 ft | 362 kts | 270° |
| 2026-04-30 17:55 | 45.61228 | 8.15014 | 18309 ft | 371 kts | 291° |
| 2026-04-30 17:56 | 45.64631 | 8.00818 | 20542 ft | 384 kts | 290° |
| 2026-04-30 17:57 | 45.67152 | 7.89810 | 22151 ft | 394 kts | 290° |
| 2026-04-30 17:58 | 45.69717 | 7.78557 | 23623 ft | 404 kts | 290° |
| 2026-04-30 17:59 | 45.73247 | 7.63063 | 25290 ft | 415 kts | 290° |
| 2026-04-30 18:00 | 45.76823 | 7.47190 | 26919 ft | 423 kts | 289° |
| 2026-04-30 18:00 | 45.80286 | 7.35579 | 28045 ft | 425 kts | 308° |
| 2026-04-30 18:01 | 45.84493 | 7.29662 | 28807 ft | 426 kts | 326° |
| 2026-04-30 18:02 | 45.91808 | 7.22244 | 29876 ft | 432 kts | 326° |
| 2026-04-30 18:02 | 45.99213 | 7.14667 | 30775 ft | 439 kts | 326° |
| 2026-04-30 18:03 | 46.06738 | 7.06947 | 31481 ft | 446 kts | 326° |
| 2026-04-30 18:04 | 46.14279 | 6.99195 | 32594 ft | 444 kts | 326° |
| 2026-04-30 18:05 | 46.24266 | 6.88866 | 34211 ft | 439 kts | 326° |
| 2026-04-30 18:06 | 46.34146 | 6.78618 | 35377 ft | 438 kts | 326° |
| 2026-04-30 18:07 | 46.44039 | 6.68374 | 36504 ft | 435 kts | 330° |
| 2026-04-30 18:08 | 46.52108 | 6.62527 | 37279 ft | 431 kts | 335° |
| 2026-04-30 18:09 | 46.62863 | 6.54941 | 38176 ft | 429 kts | 335° |
| 2026-04-30 18:10 | 46.73581 | 6.47334 | 38180 ft | 431 kts | 335° |
| 2026-04-30 18:11 | 46.92426 | 6.33902 | 38197 ft | 430 kts | 335° |
| 2026-04-30 18:13 | 47.05831 | 6.24282 | 38189 ft | 430 kts | 335° |
| 2026-04-30 18:14 | 47.19261 | 6.14601 | 38162 ft | 431 kts | 335° |
| 2026-04-30 18:15 | 47.35659 | 6.03821 | 38166 ft | 428 kts | 351° |
| 2026-04-30 18:16 | 47.41581 | 6.03404 | 38159 ft | 426 kts | 2° |
| 2026-04-30 18:16 | 47.47509 | 6.03547 | 38156 ft | 426 kts | 1° |
| 2026-04-30 18:17 | 47.53435 | 6.03671 | 38173 ft | 426 kts | 2° |
| 2026-04-30 18:18 | 47.62329 | 6.03877 | 38171 ft | 426 kts | 3° |
| 2026-04-30 18:18 | 47.68263 | 6.04015 | 38173 ft | 427 kts | 2° |
| 2026-04-30 18:19 | 47.74194 | 6.04361 | 38180 ft | 426 kts | 9° |
| 2026-04-30 18:19 | 47.79958 | 6.06351 | 38172 ft | 425 kts | 15° |
| 2026-04-30 18:20 | 47.85661 | 6.08500 | 38160 ft | 426 kts | 15° |
| 2026-04-30 18:20 | 47.91412 | 6.10663 | 38178 ft | 426 kts | 15° |
| 2026-04-30 18:21 | 47.97168 | 6.12830 | 38186 ft | 427 kts | 15° |
| 2026-04-30 18:21 | 48.02926 | 6.15008 | 38198 ft | 427 kts | 14° |
| 2026-04-30 18:22 | 48.08692 | 6.17192 | 38212 ft | 427 kts | 15° |
| 2026-04-30 18:22 | 48.16406 | 6.20113 | 38224 ft | 427 kts | 15° |
| 2026-04-30 18:23 | 48.22123 | 6.22294 | 38229 ft | 427 kts | 15° |
| 2026-04-30 18:23 | 48.27878 | 6.24495 | 38225 ft | 426 kts | 16° |
| 2026-04-30 18:24 | 48.36501 | 6.27807 | 38224 ft | 426 kts | 15° |
| 2026-04-30 18:25 | 48.42245 | 6.30008 | 38224 ft | 426 kts | 15° |
| 2026-04-30 18:25 | 48.50857 | 6.33333 | 38219 ft | 426 kts | 15° |
| 2026-04-30 18:26 | 48.59472 | 6.36666 | 38241 ft | 426 kts | 15° |
| 2026-04-30 18:27 | 48.68177 | 6.39384 | 38245 ft | 428 kts | 6° |
| 2026-04-30 18:28 | 48.77101 | 6.40266 | 38243 ft | 429 kts | 6° |
| 2026-04-30 18:28 | 48.86026 | 6.41174 | 38250 ft | 428 kts | 6° |
| 2026-04-30 18:29 | 48.97927 | 6.42388 | 38244 ft | 429 kts | 6° |
| 2026-04-30 18:30 | 49.09807 | 6.43515 | 38255 ft | 430 kts | 0° |
| 2026-04-30 18:31 | 49.18632 | 6.40776 | 38257 ft | 434 kts | 347° |
| 2026-04-30 18:32 | 49.27375 | 6.37195 | 38264 ft | 434 kts | 348° |
| 2026-04-30 18:33 | 49.36118 | 6.33605 | 38264 ft | 433 kts | 347° |
| 2026-04-30 18:33 | 49.44853 | 6.29983 | 38270 ft | 433 kts | 347° |
| 2026-04-30 18:34 | 49.53399 | 6.25429 | 38257 ft | 438 kts | 334° |
| 2026-04-30 18:35 | 49.58786 | 6.21044 | 38263 ft | 438 kts | 334° |
| 2026-04-30 18:35 | 49.64144 | 6.16674 | 38270 ft | 439 kts | 334° |
| 2026-04-30 18:36 | 49.72241 | 6.10064 | 38274 ft | 439 kts | 334° |
| 2026-04-30 18:37 | 49.80328 | 6.03425 | 38270 ft | 439 kts | 334° |
| 2026-04-30 18:37 | 49.85715 | 5.98990 | 38272 ft | 439 kts | 334° |
| 2026-04-30 18:38 | 49.91103 | 5.94526 | 38276 ft | 439 kts | 334° |
| 2026-04-30 18:38 | 49.96494 | 5.90060 | 38272 ft | 440 kts | 334° |
| 2026-04-30 18:39 | 50.01899 | 5.85576 | 38271 ft | 441 kts | 334° |
| 2026-04-30 18:39 | 50.07266 | 5.80911 | 38262 ft | 444 kts | 327° |
| 2026-04-30 18:40 | 50.11907 | 5.74525 | 38267 ft | 447 kts | 317° |
| 2026-04-30 18:40 | 50.16366 | 5.67781 | 38264 ft | 447 kts | 317° |
| 2026-04-30 18:41 | 50.20829 | 5.61028 | 38267 ft | 447 kts | 318° |
| 2026-04-30 18:41 | 50.25297 | 5.54275 | 38273 ft | 447 kts | 318° |
| 2026-04-30 18:42 | 50.29768 | 5.47501 | 38266 ft | 448 kts | 317° |
| 2026-04-30 18:42 | 50.34386 | 5.41014 | 38267 ft | 444 kts | 330° |
| 2026-04-30 18:42 | 50.37120 | 5.38804 | 38240 ft | 443 kts | 336° |
| 2026-04-30 18:45 | 50.65128 | 5.18244 | 36396 ft | 446 kts | 336° |
| 2026-04-30 18:45 | 50.67941 | 5.16156 | 36013 ft | 447 kts | 336° |
| 2026-04-30 18:45 | 50.70752 | 5.14064 | 35477 ft | 447 kts | 336° |
| 2026-04-30 18:46 | 50.73564 | 5.11975 | 34981 ft | 446 kts | 336° |
| 2026-04-30 18:46 | 50.76346 | 5.09835 | 34495 ft | 444 kts | 335° |
| 2026-04-30 18:46 | 50.79059 | 5.07658 | 33980 ft | 442 kts | 334° |
| 2026-04-30 18:46 | 50.81774 | 5.05423 | 33447 ft | 439 kts | 334° |
| 2026-04-30 18:47 | 50.84465 | 5.03186 | 32900 ft | 436 kts | 334° |
| 2026-04-30 18:47 | 50.87139 | 5.00965 | 32377 ft | 433 kts | 334° |
| 2026-04-30 18:47 | 50.89798 | 4.98769 | 31860 ft | 430 kts | 334° |
| 2026-04-30 18:47 | 50.92443 | 4.96603 | 31362 ft | 427 kts | 334° |
| 2026-04-30 18:48 | 50.95075 | 4.94454 | 30862 ft | 424 kts | 334° |
| 2026-04-30 18:48 | 50.97688 | 4.92324 | 30373 ft | 421 kts | 334° |
| 2026-04-30 18:48 | 51.00285 | 4.90209 | 29811 ft | 418 kts | 334° |
| 2026-04-30 18:48 | 51.02865 | 4.88101 | 29254 ft | 415 kts | 334° |
| 2026-04-30 18:49 | 51.05419 | 4.86006 | 28711 ft | 412 kts | 334° |
| 2026-04-30 18:49 | 51.07955 | 4.83924 | 28168 ft | 409 kts | 334° |
| 2026-04-30 18:49 | 51.10474 | 4.81855 | 27646 ft | 406 kts | 334° |
| 2026-04-30 18:49 | 51.12973 | 4.79802 | 27134 ft | 403 kts | 334° |
| 2026-04-30 18:50 | 51.15456 | 4.77753 | 26619 ft | 400 kts | 334° |
| 2026-04-30 18:50 | 51.17914 | 4.75715 | 26120 ft | 397 kts | 334° |
| 2026-04-30 18:50 | 51.20356 | 4.73690 | 25622 ft | 395 kts | 334° |
| 2026-04-30 18:50 | 51.22788 | 4.71676 | 25140 ft | 392 kts | 334° |
| 2026-04-30 18:51 | 51.25204 | 4.69674 | 24662 ft | 390 kts | 334° |
| 2026-04-30 18:51 | 51.27607 | 4.67682 | 24192 ft | 388 kts | 334° |
| 2026-04-30 18:51 | 51.29997 | 4.65698 | 23717 ft | 386 kts | 334° |
| 2026-04-30 18:51 | 51.32376 | 4.63719 | 23164 ft | 384 kts | 334° |
| 2026-04-30 18:52 | 51.34743 | 4.61749 | 22633 ft | 383 kts | 334° |
| 2026-04-30 18:52 | 51.37104 | 4.59785 | 22107 ft | 382 kts | 334° |
| 2026-04-30 18:52 | 51.39470 | 4.57811 | 21337 ft | 388 kts | 334° |
| 2026-04-30 18:52 | 51.41877 | 4.55798 | 20684 ft | 391 kts | 334° |
| 2026-04-30 18:53 | 51.44282 | 4.53782 | 20169 ft | 389 kts | 333° |
| 2026-04-30 18:53 | 51.46674 | 4.51773 | 19693 ft | 387 kts | 334° |
| 2026-04-30 18:53 | 51.49056 | 4.49777 | 19212 ft | 385 kts | 334° |
| 2026-04-30 18:53 | 51.51426 | 4.47791 | 18752 ft | 384 kts | 334° |
| 2026-04-30 18:54 | 51.53784 | 4.45815 | 18273 ft | 381 kts | 333° |
| 2026-04-30 18:54 | 51.56123 | 4.43846 | 17679 ft | 376 kts | 333° |
| 2026-04-30 18:54 | 51.58458 | 4.41875 | 16372 ft | 383 kts | 333° |
| 2026-04-30 18:54 | 51.60794 | 4.39901 | 15343 ft | 384 kts | 333° |
| 2026-04-30 18:55 | 51.63147 | 4.37912 | 14436 ft | 380 kts | 333° |
| 2026-04-30 18:55 | 51.67765 | 4.33997 | 13726 ft | 364 kts | 333° |
| 2026-04-30 18:55 | 51.69982 | 4.32115 | 13413 ft | 357 kts | 333° |
| 2026-04-30 18:56 | 51.74292 | 4.28461 | 12867 ft | 343 kts | 334° |
| 2026-04-30 18:56 | 51.76385 | 4.26684 | 12607 ft | 336 kts | 334° |
| 2026-04-30 18:56 | 51.78434 | 4.24937 | 12355 ft | 331 kts | 333° |
| 2026-04-30 18:57 | 51.82477 | 4.21484 | 11855 ft | 327 kts | 334° |
| 2026-04-30 18:57 | 51.84478 | 4.19762 | 11608 ft | 324 kts | 333° |
| 2026-04-30 18:57 | 51.86418 | 4.17988 | 11315 ft | 320 kts | 331° |
| 2026-04-30 18:58 | 51.90500 | 4.15533 | 10574 ft | 310 kts | 2° |
| 2026-04-30 18:58 | 51.92641 | 4.15875 | 9597 ft | 321 kts | 21° |
| 2026-04-30 18:58 | 51.94538 | 4.17459 | 9529 ft | 297 kts | 42° |
| 2026-04-30 18:59 | 51.97713 | 4.21757 | 8342 ft | 305 kts | 44° |
| 2026-04-30 19:00 | 52.02645 | 4.28288 | 6968 ft | 302 kts | 44° |
| 2026-04-30 19:00 | 52.04269 | 4.30433 | 6495 ft | 300 kts | 44° |
| 2026-04-30 19:00 | 52.07500 | 4.34706 | 5408 ft | 302 kts | 44° |
| 2026-04-30 19:01 | 52.10758 | 4.39049 | 4340 ft | 301 kts | 44° |
| 2026-04-30 19:01 | 52.12369 | 4.41195 | 3859 ft | 298 kts | 45° |
| 2026-04-30 19:02 | 52.15521 | 4.45397 | 3190 ft | 282 kts | 45° |
| 2026-04-30 19:02 | 52.18398 | 4.49216 | 2933 ft | 252 kts | 45° |
| 2026-04-30 19:03 | 52.20851 | 4.52799 | 2679 ft | 219 kts | 62° |
| 2026-04-30 19:03 | 52.22387 | 4.56796 | 2398 ft | 198 kts | 65° |
| 2026-04-30 19:04 | 52.23786 | 4.60429 | 1918 ft | 180 kts | 66° |
| 2026-04-30 19:04 | 52.25007 | 4.63583 | 1475 ft | 150 kts | 65° |
| 2026-04-30 19:05 | 52.26048 | 4.66299 | 1047 ft | 137 kts | 68° |
| 2026-04-30 19:05 | 52.27048 | 4.68906 | 736 ft | 136 kts | 65° |
| 2026-04-30 19:06 | 52.28068 | 4.71532 | 355 ft | 136 kts | 64° |
| 2026-04-30 19:06 | 52.28568 | 4.72838 | 155 ft | 135 kts | 62° |
| 2026-04-30 19:06 | 52.29490 | 4.75234 | -3 ft | 91 kts | 57° |
| 2026-04-30 19:07 | 52.29920 | 4.76358 | -4 ft | 42 kts | 58° |
| 2026-04-30 19:07 | 52.30048 | 4.76558 | -2 ft | 23 kts | 30° |
| 2026-04-30 19:08 | 52.30242 | 4.76724 | -1 ft | 14 kts | 28° |
| 2026-04-30 19:08 | 52.30362 | 4.76958 | -1 ft | 16 kts | 59° |
| 2026-04-30 19:08 | 52.30424 | 4.77116 | -1 ft | 18 kts | 57° |
| 2026-04-30 19:09 | 52.30568 | 4.77490 | -1 ft | 21 kts | 56° |
| 2026-04-30 19:09 | 52.30700 | 4.77591 | -1 ft | 23 kts | 4° |
| 2026-04-30 19:09 | 52.30866 | 4.77608 | -1 ft | 25 kts | 4° |
| 2026-04-30 19:10 | 52.31228 | 4.77641 | -1 ft | 27 kts | 2° |
| 2026-04-30 19:10 | 52.31507 | 4.77565 | -1 ft | 19 kts | 314° |
| 2026-04-30 19:11 | 52.31575 | 4.77377 | -1 ft | 21 kts | 279° |
| 2026-04-30 19:11 | 52.31564 | 4.76927 | -1 ft | 26 kts | 266° |
| 2026-04-30 19:11 | 52.31550 | 4.76527 | -1 ft | 28 kts | 268° |
| 2026-04-30 19:12 | 52.31544 | 4.76310 | -1 ft | 29 kts | 269° |
| 2026-04-30 19:12 | 52.31532 | 4.76045 | -1 ft | 7 kts | 266° |
| 2026-04-30 19:12 | 52.31529 | 4.75954 | -1 ft | 10 kts | 267° |
| 2026-04-30 19:13 | 52.31516 | 4.75570 | -1 ft | 19 kts | 263° |
| 2026-04-30 19:13 | 52.31324 | 4.75481 | -1 ft | 18 kts | 177° |
| 2026-04-30 19:13 | 52.31191 | 4.75493 | -1 ft | 18 kts | 174° |
| 2026-04-30 19:14 | 52.31107 | 4.75496 | -1 ft | 8 kts | 203° |
| 2026-04-30 19:14 | 52.31079 | 4.75433 | -1 ft | 7 kts | 239° |
| 2026-04-30 19:14 | 52.31047 | 4.75382 | -1 ft | 6 kts | 195° |
| 2026-04-30 19:14 | 52.31020 | 4.75395 | -1 ft | 4 kts | 153° |
| 2026-04-30 19:15 | 52.31009 | 4.75406 | -1 ft | 1 kts | 149° |
| 2026-04-30 19:15 | 52.31007 | 4.75408 | -1 ft | 0 kts | 149° |